Hlavní strana
METAR-TAF:

METAR-TAF

Letiště :

Foz do Iguaçu, Paraná, Brazílie

zeměpisná šířka: 25-31S, zeměpisná délka: 054-35W, výška: 180 m

Aktuální stav počasí

Zpráva byla vytvořena před 33 minutami, v 03:00 UTC
Východní vítr 3 kt
Teplota 19°C
Vlhkost vzduchu 68%
Tlak 1014 hPa
Viditelnost 10 km a více
Žádná oblačnost pod 1500 m, nevyskytují se cumulonimby.

METAR: SBFI 190300Z 10003KT CAVOK 19/13 Q1014

Čas: 00:33 (03:33 UTC)

Předpověď počasí

Zpráva byla vytvořena před 5 hodinami a 33 minutami, v 22:00 UTC
Předpověď platná od 19 v 00 UTC do 19 v 24 UTC
Severoseverovýchodní vítr 5 kt
Viditelnost 10 km a více
Žádná oblačnost pod 1500 m, nevyskytují se cumulonimby.
Změna
od 19 v 00 UTC do 19 v 02 UTC
Východní vítr 5 kt
Změna
od 19 v 12 UTC do 19 v 14 UTC
Severoseverovýchodní vítr 9 kt

TAF: SBFI 182200Z 1900/1924 02005KT CAVOK TN20/1909Z TX31/1918Z BECMG 1900/1902 09005KT BECMG 1912/1914 02009KT RMK PER

Stav a předpovědi počasí z více než 4 000 letišť (zprávy METAR a TAF).

Červené a žluté tečky na mapě představují dostupné meteorologické stanice.

Když kurzor umístíte na tečku, zobrazí se název stanice.

Pak kliknutím zobrazíte stav a předpověď počasí.

Chcete-li změnit mapu, kliknutím na zelené tlačítko se znaménkem +mapu přiblížíte, kliknutím na zelené tlačítko se znaménkem – mapu oddálíte a kliknutím na zelené šipky přejdete na sousední mapy.


METAR-TAF: